createdAt,value
2018-12-05T00:00:40.687Z,2.30
2018-12-05T00:01:40.701Z,2.30
2018-12-05T00:02:40.702Z,2.40
2018-12-05T00:03:40.718Z,2.40
2018-12-05T00:04:40.730Z,2.30
2018-12-05T00:05:40.745Z,2.20
2018-12-05T00:06:40.756Z,2.00
2018-12-05T00:07:40.757Z,2.80
2018-12-05T00:08:40.772Z,2.50
2018-12-05T00:09:40.787Z,2.30
2018-12-05T00:10:40.800Z,2.20
2018-12-05T00:11:40.811Z,2.70
2018-12-05T00:12:40.826Z,2.50
2018-12-05T00:13:40.837Z,2.40
2018-12-05T00:14:40.844Z,2.40
2018-12-05T00:15:40.853Z,2.80
2018-12-05T00:16:40.866Z,3.00
2018-12-05T00:17:40.883Z,3.40
2018-12-05T00:18:40.883Z,2.20
2018-12-05T00:19:40.894Z,2.20
2018-12-05T00:20:40.913Z,2.50
2018-12-05T00:21:40.920Z,2.60
2018-12-05T00:22:40.935Z,2.60
2018-12-05T00:23:40.937Z,2.70
2018-12-05T00:24:40.949Z,2.20
2018-12-05T00:25:40.964Z,2.00
2018-12-05T00:26:40.979Z,2.60
2018-12-05T00:27:40.990Z,2.00
2018-12-05T00:28:40.991Z,2.50
2018-12-05T00:29:41.003Z,2.30
2018-12-05T00:30:41.018Z,2.30
2018-12-05T00:31:41.030Z,2.40
2018-12-05T00:32:41.048Z,2.00
2018-12-05T00:33:41.057Z,2.30
2018-12-05T00:34:41.059Z,1.80
2018-12-05T00:35:41.073Z,2.70
2018-12-05T00:36:41.085Z,2.30
2018-12-05T00:37:41.100Z,3.00
2018-12-05T00:38:41.113Z,2.70
2018-12-05T00:39:41.115Z,2.30
2018-12-05T00:40:41.128Z,2.70
2018-12-05T00:41:41.154Z,2.60
2018-12-05T00:42:41.155Z,2.20
2018-12-05T00:43:41.168Z,2.70
2018-12-05T00:44:41.169Z,2.50
2018-12-05T00:45:41.184Z,2.40
2018-12-05T00:46:41.209Z,2.90
2018-12-05T00:47:41.213Z,3.10
2018-12-05T00:48:41.223Z,2.70
2018-12-05T00:49:41.227Z,2.80
2018-12-05T00:50:41.242Z,2.50
2018-12-05T00:51:41.251Z,2.60
2018-12-05T00:52:41.266Z,2.40
2018-12-05T00:53:41.278Z,2.20
2018-12-05T00:54:41.281Z,2.30
2018-12-05T00:55:41.294Z,2.80
2018-12-05T00:56:41.306Z,2.30
2018-12-05T00:57:41.320Z,2.50
2018-12-05T00:58:41.334Z,3.40
2018-12-05T00:59:41.348Z,2.80
2018-12-05T01:00:41.349Z,2.40
2018-12-05T01:01:41.362Z,2.40
2018-12-05T01:02:41.375Z,3.10
2018-12-05T01:03:41.388Z,2.70
2018-12-05T01:04:41.473Z,2.70
2018-12-05T01:05:41.404Z,2.10
2018-12-05T01:06:41.429Z,3.10
2018-12-05T01:07:41.431Z,3.10
2018-12-05T01:08:41.445Z,2.70
2018-12-05T01:09:41.458Z,2.70
2018-12-05T01:10:41.459Z,2.70
2018-12-05T01:11:41.472Z,2.40
2018-12-05T01:12:41.487Z,2.50
2018-12-05T01:13:41.499Z,2.40
2018-12-05T01:14:41.514Z,2.30
2018-12-05T01:15:41.514Z,2.40
2018-12-05T01:16:41.527Z,2.90
2018-12-05T01:17:41.541Z,3.50
2018-12-05T01:18:41.554Z,3.00
2018-12-05T01:19:41.568Z,2.60
2018-12-05T01:20:41.569Z,3.00
2018-12-05T01:21:41.582Z,3.00
2018-12-05T01:22:41.597Z,2.70
2018-12-05T01:23:41.611Z,3.00
2018-12-05T01:24:41.612Z,2.90
2018-12-05T01:25:41.624Z,2.40
2018-12-05T01:26:41.638Z,2.90
2018-12-05T01:27:41.651Z,2.90
2018-12-05T01:28:41.664Z,2.90
2018-12-05T01:29:41.666Z,2.90
2018-12-05T01:30:41.680Z,2.60
2018-12-05T01:31:41.693Z,2.70
2018-12-05T01:32:41.707Z,2.80
2018-12-05T01:33:41.721Z,2.40
2018-12-05T01:34:41.721Z,3.20
2018-12-05T01:35:41.735Z,3.00
2018-12-05T01:36:41.749Z,2.50
2018-12-05T01:37:41.762Z,2.60
2018-12-05T01:38:41.775Z,3.40
2018-12-05T01:39:41.777Z,2.40
2018-12-05T01:40:41.795Z,3.20
2018-12-05T01:41:41.803Z,2.60
2018-12-05T01:42:41.820Z,3.10
2018-12-05T01:43:41.830Z,2.90
2018-12-05T01:44:41.831Z,3.00
2018-12-05T01:45:41.846Z,3.00
2018-12-05T01:46:41.858Z,2.80
2018-12-05T01:47:41.872Z,2.60
2018-12-05T01:48:41.885Z,2.90
2018-12-05T01:49:41.886Z,2.60
2018-12-05T01:50:41.900Z,2.90
2018-12-05T01:51:41.913Z,2.80
2018-12-05T01:52:41.927Z,2.40
2018-12-05T01:53:41.941Z,2.60
2018-12-05T01:54:41.941Z,2.20
2018-12-05T01:55:41.956Z,2.80
2018-12-05T01:56:41.970Z,2.80
2018-12-05T01:57:41.983Z,2.80
2018-12-05T01:58:41.998Z,3.00
2018-12-05T01:59:41.996Z,2.60
2018-12-05T02:00:42.011Z,3.60
2018-12-05T02:01:42.026Z,2.80
2018-12-05T02:02:42.038Z,2.40
2018-12-05T02:03:42.039Z,2.60
2018-12-05T02:04:42.052Z,2.80
2018-12-05T02:05:42.066Z,3.00
2018-12-05T02:06:42.079Z,2.50
2018-12-05T02:07:42.094Z,2.50
2018-12-05T02:08:42.094Z,2.80
2018-12-05T02:09:42.107Z,2.60
2018-12-05T02:10:42.122Z,3.00
2018-12-05T02:11:42.134Z,2.60
2018-12-05T02:12:42.137Z,2.50
2018-12-05T02:13:42.149Z,3.80
2018-12-05T02:14:42.175Z,2.90
2018-12-05T02:15:42.177Z,2.90
2018-12-05T02:16:42.191Z,2.80
2018-12-05T02:17:42.192Z,2.90
2018-12-05T02:18:42.207Z,2.90
2018-12-05T02:19:42.230Z,3.30
2018-12-05T02:20:42.233Z,2.90
2018-12-05T02:21:42.257Z,3.50
2018-12-05T02:22:42.247Z,3.30
2018-12-05T02:23:42.260Z,3.10
2018-12-05T02:24:42.273Z,2.90
2018-12-05T02:25:42.297Z,2.90
2018-12-05T02:26:42.300Z,3.10
2018-12-05T02:27:42.301Z,2.90
2018-12-05T02:28:42.315Z,3.40
2018-12-05T02:29:42.328Z,3.40
2018-12-05T02:30:42.350Z,2.80
2018-12-05T02:31:42.357Z,2.70
2018-12-05T02:32:42.356Z,3.30
2018-12-05T02:33:42.371Z,3.20
2018-12-05T02:34:42.383Z,3.20
2018-12-05T02:35:42.398Z,3.00
2018-12-05T02:36:42.398Z,3.10
2018-12-05T02:37:42.411Z,3.00
2018-12-05T02:38:42.427Z,2.70
2018-12-05T02:39:42.452Z,3.00
2018-12-05T02:40:42.453Z,3.20
2018-12-05T02:41:42.453Z,3.10
2018-12-05T02:42:42.481Z,3.20
2018-12-05T02:43:42.484Z,3.30
2018-12-05T02:44:42.493Z,4.00
2018-12-05T02:45:42.509Z,3.10
2018-12-05T02:46:42.509Z,3.20
2018-12-05T02:47:42.522Z,3.30
2018-12-05T02:48:42.537Z,2.80
2018-12-05T02:49:42.548Z,3.80
2018-12-05T02:50:42.565Z,3.10
2018-12-05T02:51:42.564Z,3.00
2018-12-05T02:52:42.577Z,2.80
2018-12-05T02:53:42.595Z,2.50
2018-12-05T02:54:42.603Z,3.00
2018-12-05T02:55:42.619Z,3.00
2018-12-05T02:56:42.619Z,3.20
2018-12-05T02:57:42.632Z,2.80
2018-12-05T02:58:42.646Z,3.40
2018-12-05T02:59:42.659Z,3.20
2018-12-05T03:00:42.660Z,3.20
2018-12-05T03:01:42.678Z,3.50
2018-12-05T03:02:42.687Z,3.10
2018-12-05T03:03:42.702Z,3.00
2018-12-05T03:04:42.714Z,4.20
2018-12-05T03:05:42.716Z,3.50
2018-12-05T03:06:42.729Z,3.10
2018-12-05T03:07:42.741Z,2.90
2018-12-05T03:08:42.756Z,3.10
2018-12-05T03:09:42.769Z,3.70
2018-12-05T03:10:42.770Z,4.00
2018-12-05T03:11:42.784Z,3.20
2018-12-05T03:12:42.797Z,4.00
2018-12-05T03:13:42.817Z,3.40
2018-12-05T03:14:42.816Z,2.90
2018-12-05T03:15:42.827Z,3.90
2018-12-05T03:16:42.841Z,3.80
2018-12-05T03:17:42.853Z,3.70
2018-12-05T03:18:42.880Z,3.20
2018-12-05T03:19:42.867Z,3.00
2018-12-05T03:20:42.880Z,2.80
2018-12-05T03:21:42.894Z,3.50
2018-12-05T03:22:42.920Z,3.30
2018-12-05T03:23:42.921Z,3.00
2018-12-05T03:24:42.922Z,3.30
2018-12-05T03:25:42.934Z,3.20
2018-12-05T03:26:42.949Z,3.00
2018-12-05T03:27:42.976Z,3.40
2018-12-05T03:28:42.975Z,3.10
2018-12-05T03:29:42.981Z,3.00
2018-12-05T03:30:42.991Z,3.10
2018-12-05T03:31:43.005Z,3.20
2018-12-05T03:32:43.018Z,3.30
2018-12-05T03:33:43.034Z,2.80
2018-12-05T03:34:43.034Z,3.10
2018-12-05T03:35:43.045Z,3.50
2018-12-05T03:36:43.059Z,3.40
2018-12-05T03:37:43.061Z,3.80
2018-12-05T03:38:43.073Z,3.60
2018-12-05T03:39:43.088Z,3.70
2018-12-05T03:40:43.100Z,3.20
2018-12-05T03:41:43.114Z,3.20
2018-12-05T03:42:43.116Z,3.30
2018-12-05T03:43:43.131Z,3.40
2018-12-05T03:44:43.144Z,3.70
2018-12-05T03:45:43.156Z,3.70
2018-12-05T03:46:43.170Z,3.60
2018-12-05T03:47:43.171Z,3.90
2018-12-05T03:48:43.202Z,3.60
2018-12-05T03:49:43.198Z,3.50
2018-12-05T03:50:43.212Z,3.20
2018-12-05T03:51:43.218Z,3.50
2018-12-05T03:52:43.226Z,3.40
2018-12-05T03:53:43.239Z,4.60
2018-12-05T03:54:43.253Z,3.60
2018-12-05T03:55:43.266Z,4.00
2018-12-05T03:56:43.267Z,3.60
2018-12-05T03:57:43.282Z,3.50
2018-12-05T03:58:43.294Z,3.30
2018-12-05T03:59:43.309Z,3.70
2018-12-05T04:00:43.310Z,3.50
2018-12-05T04:01:43.322Z,3.90
2018-12-05T04:02:43.340Z,3.70
2018-12-05T04:03:43.350Z,3.10
2018-12-05T04:04:43.365Z,3.80
2018-12-05T04:05:43.366Z,3.50
2018-12-05T04:06:43.378Z,3.20
2018-12-05T04:07:43.392Z,3.40
2018-12-05T04:08:43.413Z,3.40
2018-12-05T04:09:45.076Z,3.80
2018-12-05T04:10:43.421Z,3.50
2018-12-05T04:11:43.433Z,3.60
2018-12-05T04:12:43.450Z,3.50
2018-12-05T04:13:43.461Z,3.90
2018-12-05T04:14:43.462Z,3.70
2018-12-05T04:15:43.476Z,3.60
2018-12-05T04:16:43.493Z,3.40
2018-12-05T04:17:43.502Z,3.60
2018-12-05T04:18:43.505Z,4.30
2018-12-05T04:19:43.517Z,3.30
2018-12-05T04:20:43.533Z,4.10
2018-12-05T04:21:43.543Z,3.60
2018-12-05T04:22:43.562Z,3.50
2018-12-05T04:23:43.560Z,4.10
2018-12-05T04:24:43.585Z,3.40
2018-12-05T04:25:43.586Z,3.60
2018-12-05T04:26:43.598Z,3.80
2018-12-05T04:27:43.602Z,3.50
2018-12-05T04:28:43.614Z,3.60
2018-12-05T04:29:43.630Z,3.70
2018-12-05T04:30:43.641Z,4.60
2018-12-05T04:31:43.654Z,3.40
2018-12-05T04:32:43.656Z,3.90
2018-12-05T04:33:43.672Z,3.70
2018-12-05T04:34:43.682Z,3.60
2018-12-05T04:35:43.696Z,4.00
2018-12-05T04:36:43.698Z,3.50
2018-12-05T04:37:43.723Z,3.60
2018-12-05T04:38:43.724Z,4.30
2018-12-05T04:39:43.737Z,3.30
2018-12-05T04:40:43.739Z,4.30
2018-12-05T04:41:43.753Z,4.00
2018-12-05T04:42:43.765Z,4.40
2018-12-05T04:43:43.780Z,3.60
2018-12-05T04:44:43.794Z,4.40
2018-12-05T04:45:43.794Z,3.70
2018-12-05T04:46:43.807Z,4.00
2018-12-05T04:47:43.822Z,3.80
2018-12-05T04:48:43.835Z,4.00
2018-12-05T04:49:43.844Z,3.80
2018-12-05T04:50:43.849Z,4.10
2018-12-05T04:51:43.862Z,3.90
2018-12-05T04:52:43.876Z,3.90
2018-12-05T04:53:43.891Z,4.40
2018-12-05T04:54:43.893Z,3.50
2018-12-05T04:55:43.904Z,4.00
2018-12-05T04:56:43.918Z,4.20
2018-12-05T04:57:43.944Z,4.70
2018-12-05T04:58:43.946Z,4.40
2018-12-05T04:59:43.946Z,4.10
2018-12-05T05:00:43.967Z,4.30
2018-12-05T05:01:43.973Z,4.70
2018-12-05T05:02:43.999Z,4.50
2018-12-05T05:03:44.000Z,4.10
2018-12-05T05:04:44.001Z,5.10
2018-12-05T05:05:44.016Z,4.20
2018-12-05T05:06:44.028Z,4.90
2018-12-05T05:07:44.029Z,4.60
2018-12-05T05:08:44.042Z,4.30
2018-12-05T05:09:44.057Z,5.00
2018-12-05T05:10:44.069Z,4.20
2018-12-05T05:11:44.085Z,4.80
2018-12-05T05:12:44.089Z,5.10
2018-12-05T05:13:44.097Z,4.60
2018-12-05T05:14:44.112Z,4.90
2018-12-05T05:15:44.124Z,4.80
2018-12-05T05:16:44.126Z,4.50
2018-12-05T05:17:44.140Z,4.70
2018-12-05T05:18:44.153Z,5.00
2018-12-05T05:19:44.167Z,4.80
2018-12-05T05:20:44.168Z,5.30
2018-12-05T05:21:44.185Z,5.50
2018-12-05T05:22:44.198Z,4.60
2018-12-05T05:23:44.209Z,4.80
2018-12-05T05:24:44.221Z,5.70
2018-12-05T05:25:44.223Z,4.60
2018-12-05T05:26:44.236Z,5.20
2018-12-05T05:27:46.031Z,5.00
2018-12-05T05:28:44.263Z,5.10
2018-12-05T05:29:44.264Z,5.40
2018-12-05T05:30:44.278Z,5.60
2018-12-05T05:31:44.291Z,5.10
2018-12-05T05:32:44.305Z,5.20
2018-12-05T05:33:44.307Z,5.50
2018-12-05T05:34:44.319Z,5.80
2018-12-05T05:35:44.333Z,5.60
2018-12-05T05:36:44.345Z,5.80
2018-12-05T05:37:44.349Z,5.50
2018-12-05T05:38:44.361Z,6.00
2018-12-05T05:39:44.376Z,5.70
2018-12-05T05:40:44.390Z,5.70
2018-12-05T05:41:44.401Z,5.60
2018-12-05T05:42:44.402Z,5.10
2018-12-05T05:43:44.417Z,6.50
2018-12-05T05:44:44.429Z,6.50
2018-12-05T05:45:44.444Z,6.60
2018-12-05T05:46:44.445Z,6.40
2018-12-05T05:47:44.460Z,6.40
2018-12-05T05:48:44.472Z,6.10
2018-12-05T05:49:44.485Z,6.10
2018-12-05T05:50:44.498Z,6.80
2018-12-05T05:51:44.503Z,6.90
2018-12-05T05:52:44.513Z,6.70
2018-12-05T05:53:44.527Z,6.30
2018-12-05T05:54:44.528Z,7.60
2018-12-05T05:55:44.540Z,7.00
2018-12-05T05:56:45.429Z,7.10
2018-12-05T05:57:44.568Z,6.80
2018-12-05T05:58:44.569Z,6.70
2018-12-05T05:59:44.584Z,6.90
2018-12-05T06:00:44.598Z,6.80
2018-12-05T06:01:44.610Z,6.70
2018-12-05T06:02:44.612Z,6.90
2018-12-05T06:03:44.624Z,6.60
2018-12-05T06:04:44.639Z,6.80
2018-12-05T06:05:44.651Z,7.40
2018-12-05T06:06:44.653Z,7.50
2018-12-05T06:07:44.667Z,6.90
2018-12-05T06:08:44.679Z,6.50
2018-12-05T06:09:44.694Z,7.50
2018-12-05T06:10:44.706Z,7.00
2018-12-05T06:11:44.710Z,7.00
2018-12-05T06:12:44.723Z,7.30
2018-12-05T06:13:44.749Z,7.70
2018-12-05T06:14:44.749Z,7.40
2018-12-05T06:15:44.757Z,7.20
2018-12-05T06:16:44.775Z,7.20
2018-12-05T06:17:44.777Z,7.60
2018-12-05T06:18:44.791Z,7.30
2018-12-05T06:19:44.792Z,7.80
2018-12-05T06:20:44.809Z,7.60
2018-12-05T06:21:44.818Z,6.90
2018-12-05T06:22:44.832Z,7.70
2018-12-05T06:23:44.833Z,7.50
2018-12-05T06:24:44.851Z,7.00
2018-12-05T06:25:44.861Z,7.30
2018-12-05T06:26:44.876Z,6.90
2018-12-05T06:27:44.874Z,6.80
2018-12-05T06:28:44.892Z,6.80
2018-12-05T06:29:44.901Z,6.20
2018-12-05T06:30:44.916Z,6.50
2018-12-05T06:31:44.928Z,6.80
2018-12-05T06:32:44.929Z,7.10
2018-12-05T06:33:44.943Z,6.30
2018-12-05T06:34:44.956Z,6.30
2018-12-05T06:35:44.957Z,7.60
2018-12-05T06:36:44.971Z,7.10
2018-12-05T06:37:44.985Z,7.00
2018-12-05T06:38:44.999Z,6.40
2018-12-05T06:39:45.003Z,6.00
2018-12-05T06:40:45.013Z,6.70
2018-12-05T06:41:45.027Z,7.00
2018-12-05T06:42:45.052Z,6.90
2018-12-05T06:43:45.053Z,6.10
2018-12-05T06:44:45.055Z,6.60
2018-12-05T06:45:45.068Z,6.30
2018-12-05T06:46:45.081Z,6.50
2018-12-05T06:47:45.083Z,6.50
2018-12-05T06:48:45.096Z,6.20
2018-12-05T06:49:45.113Z,6.30
2018-12-05T06:50:45.123Z,6.50
2018-12-05T06:51:45.127Z,6.80
2018-12-05T06:52:45.141Z,6.80
2018-12-05T06:53:45.151Z,6.20
2018-12-05T06:54:45.165Z,6.90
2018-12-05T06:55:45.167Z,6.90
2018-12-05T06:56:45.180Z,7.50
2018-12-05T06:57:45.193Z,6.40
2018-12-05T06:58:45.207Z,6.80
2018-12-05T06:59:45.209Z,6.20
2018-12-05T07:00:45.222Z,6.90
2018-12-05T07:01:45.234Z,6.50
2018-12-05T07:02:45.248Z,7.50
2018-12-05T07:03:45.249Z,6.90
2018-12-05T07:04:45.262Z,6.70
2018-12-05T07:05:45.277Z,6.30
2018-12-05T07:06:45.292Z,6.30
2018-12-05T07:07:45.291Z,6.40
2018-12-05T07:08:45.304Z,6.50
2018-12-05T07:09:45.317Z,7.30
2018-12-05T07:10:45.332Z,6.90
2018-12-05T07:11:45.333Z,6.90
2018-12-05T07:12:45.345Z,6.40
2018-12-05T07:13:45.359Z,6.80
2018-12-05T07:14:45.375Z,6.80
2018-12-05T07:15:45.373Z,7.00
2018-12-05T07:16:45.388Z,7.70
2018-12-05T07:17:45.402Z,6.10
2018-12-05T07:18:45.402Z,7.90
2018-12-05T07:19:45.416Z,7.60
2018-12-05T07:20:45.441Z,7.10
2018-12-05T07:21:45.442Z,8.20
2018-12-05T07:22:45.444Z,8.00
2018-12-05T07:23:45.457Z,8.00
2018-12-05T07:24:45.471Z,7.40
2018-12-05T07:25:45.484Z,7.50
2018-12-05T07:26:45.485Z,7.20
2018-12-05T07:27:45.499Z,7.30
2018-12-05T07:28:45.520Z,7.70
2018-12-05T07:29:45.526Z,7.70
2018-12-05T07:30:45.526Z,8.00
2018-12-05T07:31:45.543Z,7.50
2018-12-05T07:32:45.554Z,7.90
2018-12-05T07:33:45.568Z,7.70
2018-12-05T07:34:45.568Z,8.00
2018-12-05T07:35:45.582Z,7.40
2018-12-05T07:36:45.610Z,8.50
2018-12-05T07:37:45.609Z,7.20
2018-12-05T07:38:45.614Z,7.40
2018-12-05T07:39:45.623Z,7.50
2018-12-05T07:40:45.638Z,7.70
2018-12-05T07:41:45.649Z,8.50
2018-12-05T07:42:45.664Z,8.00
2018-12-05T07:43:45.668Z,8.10
2018-12-05T07:44:45.678Z,8.60
2018-12-05T07:45:45.680Z,8.10
2018-12-05T07:46:45.694Z,8.10
2018-12-05T07:47:45.707Z,7.80
2018-12-05T07:48:45.720Z,8.10
2018-12-05T07:49:45.723Z,8.00
2018-12-05T07:50:45.750Z,7.60
2018-12-05T07:51:45.749Z,8.00
2018-12-05T07:52:45.761Z,8.10
2018-12-05T07:53:45.763Z,8.80
2018-12-05T07:54:45.778Z,8.30
2018-12-05T07:55:45.790Z,8.30
2018-12-05T07:56:45.803Z,7.90
2018-12-05T07:57:45.809Z,8.10
2018-12-05T07:58:45.821Z,8.60
2018-12-05T07:59:45.833Z,7.80
2018-12-05T08:00:45.845Z,8.10
2018-12-05T08:01:45.847Z,8.90
2018-12-05T08:02:45.860Z,8.60
2018-12-05T08:03:45.885Z,9.20
2018-12-05T08:04:45.887Z,8.30
2018-12-05T08:05:45.888Z,9.20
2018-12-05T08:06:45.901Z,7.90
2018-12-05T08:07:45.916Z,8.50
2018-12-05T08:08:45.941Z,8.40
2018-12-05T08:09:45.943Z,8.30
2018-12-05T08:10:45.945Z,8.70
2018-12-05T08:11:45.956Z,8.20
2018-12-05T08:12:45.958Z,8.20
2018-12-05T08:13:45.972Z,8.10
2018-12-05T08:14:45.985Z,8.70
2018-12-05T08:15:46.000Z,7.80
2018-12-05T08:16:46.011Z,8.30
2018-12-05T08:17:46.012Z,8.60
2018-12-05T08:18:46.026Z,7.70
2018-12-05T08:19:46.039Z,8.20
2018-12-05T08:20:46.053Z,8.00
2018-12-05T08:21:46.058Z,8.60
2018-12-05T08:22:46.067Z,8.30
2018-12-05T08:23:46.081Z,9.50
2018-12-05T08:24:46.094Z,7.90
2018-12-05T08:25:46.098Z,9.50
2018-12-05T08:26:46.110Z,8.50
2018-12-05T08:27:46.122Z,9.30
2018-12-05T08:28:46.136Z,9.10
2018-12-05T08:29:46.138Z,8.90
2018-12-05T08:30:46.151Z,9.00
2018-12-05T08:31:46.168Z,9.10
2018-12-05T08:32:46.177Z,8.30
2018-12-05T08:33:46.178Z,8.30
2018-12-05T08:34:46.238Z,9.40
2018-12-05T08:35:46.218Z,9.50
2018-12-05T08:36:46.219Z,9.60
2018-12-05T08:37:46.221Z,9.20
2018-12-05T08:38:46.233Z,10.60
2018-12-05T08:39:46.248Z,9.90
2018-12-05T08:40:46.260Z,9.70
2018-12-05T08:41:46.274Z,10.20
2018-12-05T08:42:46.276Z,10.70
2018-12-05T08:43:46.290Z,10.30
2018-12-05T08:44:46.302Z,10.10
2018-12-05T08:45:46.315Z,9.90
2018-12-05T08:46:46.316Z,10.00
2018-12-05T08:47:46.335Z,9.10
2018-12-05T08:48:46.346Z,10.40
2018-12-05T08:49:46.437Z,9.00
2018-12-05T08:50:46.370Z,9.50
2018-12-05T08:51:46.372Z,9.50
2018-12-05T08:52:46.387Z,9.60
2018-12-05T08:53:46.399Z,9.60
2018-12-05T08:54:46.413Z,9.70
2018-12-05T08:55:46.413Z,9.60
2018-12-05T08:56:46.432Z,9.70
2018-12-05T08:57:46.441Z,9.80
2018-12-05T08:58:46.454Z,10.10
2018-12-05T08:59:46.468Z,10.10
2018-12-05T09:00:46.470Z,8.90
2018-12-05T09:01:46.495Z,10.50
2018-12-05T09:02:46.496Z,9.20
2018-12-05T09:03:46.510Z,10.60
2018-12-05T09:04:46.511Z,9.90
2018-12-05T09:05:46.525Z,9.50
2018-12-05T09:06:46.537Z,9.70
2018-12-05T09:07:46.555Z,9.80
2018-12-05T09:08:46.565Z,11.00
2018-12-05T09:09:46.578Z,10.20
2018-12-05T09:10:46.579Z,9.50
2018-12-05T09:11:46.595Z,8.50
2018-12-05T09:12:46.606Z,8.70
2018-12-05T09:13:46.619Z,8.90
2018-12-05T09:14:46.634Z,8.70
2018-12-05T09:15:46.636Z,9.10
2018-12-05T09:16:46.647Z,8.80
2018-12-05T09:17:46.662Z,8.90
2018-12-05T09:18:46.674Z,9.40
2018-12-05T09:19:46.688Z,8.20
2018-12-05T09:20:46.690Z,8.50
2018-12-05T09:21:46.715Z,7.90
2018-12-05T09:22:46.717Z,8.40
2018-12-05T09:23:46.729Z,7.80
2018-12-05T09:24:46.744Z,8.00
2018-12-05T09:25:46.757Z,7.70
2018-12-05T09:26:46.758Z,6.90
2018-12-05T09:27:46.773Z,7.20
2018-12-05T09:28:46.785Z,7.00
2018-12-05T09:29:46.802Z,7.00
2018-12-05T09:30:46.812Z,7.20
2018-12-05T09:31:46.825Z,6.90
2018-12-05T09:32:46.826Z,6.70
2018-12-05T09:33:46.841Z,6.50
2018-12-05T09:34:46.855Z,6.50
2018-12-05T09:35:46.867Z,6.60
2018-12-05T09:36:46.881Z,6.00
2018-12-05T09:37:46.895Z,6.40
2018-12-05T09:38:46.895Z,5.90
2018-12-05T09:39:46.909Z,5.90
2018-12-05T09:40:46.921Z,5.10
2018-12-05T09:41:46.937Z,6.10
2018-12-05T09:42:46.949Z,5.40
2018-12-05T09:43:46.966Z,6.60
2018-12-05T09:44:46.965Z,5.80
2018-12-05T09:45:46.977Z,4.90
2018-12-05T09:46:46.992Z,5.80
2018-12-05T09:47:47.005Z,4.80
2018-12-05T09:48:47.018Z,5.00
2018-12-05T09:49:47.031Z,5.20
2018-12-05T09:50:47.045Z,5.00
2018-12-05T09:51:47.059Z,5.30
2018-12-05T09:52:47.059Z,5.80
2018-12-05T09:53:47.079Z,5.20
2018-12-05T09:54:47.092Z,5.90
2018-12-05T09:55:47.101Z,5.20
2018-12-05T09:56:47.113Z,5.50
2018-12-05T09:57:47.128Z,5.70
2018-12-05T09:58:47.141Z,5.20
2018-12-05T09:59:47.161Z,4.90
2018-12-05T10:00:47.156Z,5.40
2018-12-05T10:01:47.181Z,4.80
2018-12-05T10:02:47.183Z,4.80
2018-12-05T10:03:47.195Z,4.40
2018-12-05T10:04:47.211Z,4.40
2018-12-05T10:05:47.224Z,4.40
2018-12-05T10:06:47.237Z,5.10
2018-12-05T10:07:47.249Z,4.70
2018-12-05T10:08:47.251Z,4.80
2018-12-05T10:09:47.268Z,4.40
2018-12-05T10:10:47.282Z,5.20
2018-12-05T10:11:47.292Z,4.30
2018-12-05T10:12:47.311Z,4.00
2018-12-05T10:13:47.319Z,4.20
2018-12-05T10:14:47.332Z,4.40
2018-12-05T10:15:47.346Z,3.90
2018-12-05T10:16:47.359Z,4.10
2018-12-05T10:17:47.361Z,3.90
2018-12-05T10:18:47.374Z,3.90
2018-12-05T10:19:47.388Z,4.40
2018-12-05T10:20:47.400Z,4.20
2018-12-05T10:21:47.415Z,4.20
2018-12-05T10:22:47.433Z,4.20
2018-12-05T10:23:47.441Z,4.30
2018-12-05T10:24:47.458Z,4.00
2018-12-05T10:25:47.468Z,3.90
2018-12-05T10:26:47.483Z,3.90
2018-12-05T10:27:47.495Z,4.20
2018-12-05T10:28:47.499Z,4.10
2018-12-05T10:29:47.511Z,4.70
2018-12-05T10:30:47.525Z,3.30
2018-12-05T10:31:47.538Z,3.60
2018-12-05T10:32:47.550Z,3.40
2018-12-05T10:33:47.564Z,3.80
2018-12-05T10:34:47.577Z,4.00
2018-12-05T10:35:47.592Z,4.00
2018-12-05T10:36:47.606Z,3.90
2018-12-05T10:37:47.619Z,4.10
2018-12-05T10:38:47.631Z,4.10
2018-12-05T10:39:47.645Z,3.20
2018-12-05T10:40:47.659Z,3.80
2018-12-05T10:41:47.661Z,4.60
2018-12-05T10:42:47.674Z,3.90
2018-12-05T10:43:47.690Z,4.20
2018-12-05T10:44:47.704Z,3.30
2018-12-05T10:45:47.715Z,4.10
2018-12-05T10:46:47.732Z,3.20
2018-12-05T10:47:47.741Z,3.90
2018-12-05T10:48:47.755Z,3.40
2018-12-05T10:49:47.768Z,4.00
2018-12-05T10:50:47.782Z,3.80
2018-12-05T10:51:47.797Z,3.40
2018-12-05T10:52:47.809Z,4.00
2018-12-05T10:53:47.837Z,3.90
2018-12-05T10:54:47.836Z,4.00
2018-12-05T10:55:47.848Z,4.10
2018-12-05T10:56:47.863Z,3.30
2018-12-05T10:57:47.875Z,2.90
2018-12-05T10:58:47.890Z,3.10
2018-12-05T10:59:47.904Z,3.40
2018-12-05T11:00:47.905Z,3.10
2018-12-05T11:01:47.929Z,2.70
2018-12-05T11:02:47.931Z,3.10
2018-12-05T11:03:47.945Z,3.20
2018-12-05T11:04:47.957Z,3.00
2018-12-05T11:05:47.971Z,3.50
2018-12-05T11:06:47.985Z,3.10
2018-12-05T11:07:47.998Z,3.10
2018-12-05T11:08:48.011Z,3.10
2018-12-05T11:09:48.027Z,3.30
2018-12-05T11:10:48.039Z,3.60
2018-12-05T11:11:48.052Z,2.70
2018-12-05T11:12:48.079Z,3.40
2018-12-05T11:13:48.079Z,3.20
2018-12-05T11:14:48.092Z,3.00
2018-12-05T11:15:48.107Z,3.20
2018-12-05T11:16:48.120Z,3.40
2018-12-05T11:17:48.134Z,3.10
2018-12-05T11:18:48.147Z,2.70
2018-12-05T11:19:48.161Z,3.00
2018-12-05T11:20:48.178Z,3.30
2018-12-05T11:21:49.816Z,3.30
2018-12-05T11:22:48.208Z,2.70
2018-12-05T11:23:48.214Z,3.10
2018-12-05T11:24:48.230Z,2.70
2018-12-05T11:25:48.243Z,2.80
2018-12-05T11:26:48.268Z,3.00
2018-12-05T11:27:48.269Z,2.30
2018-12-05T11:28:48.281Z,3.20
2018-12-05T11:29:48.297Z,2.40
2018-12-05T11:30:48.310Z,2.80
2018-12-05T11:31:48.323Z,3.00
2018-12-05T11:32:48.336Z,3.00
2018-12-05T11:33:48.350Z,2.90
2018-12-05T11:34:48.365Z,2.70
2018-12-05T11:35:48.377Z,3.80
2018-12-05T11:36:48.390Z,3.10
2018-12-05T11:37:48.405Z,2.80
2018-12-05T11:38:48.417Z,2.90
2018-12-05T11:39:48.433Z,2.20
2018-12-05T11:40:48.462Z,2.60
2018-12-05T11:41:48.459Z,2.70
2018-12-05T11:42:48.472Z,2.20
2018-12-05T11:43:48.487Z,2.70
2018-12-05T11:44:48.501Z,2.30
2018-12-05T11:45:48.513Z,2.40
2018-12-05T11:46:48.615Z,2.60
2018-12-05T11:47:48.540Z,2.60
2018-12-05T11:48:48.555Z,2.80
2018-12-05T11:49:48.568Z,2.70
2018-12-05T11:50:48.580Z,2.70
2018-12-05T11:51:48.595Z,2.30
2018-12-05T11:52:48.607Z,2.30
2018-12-05T11:53:48.622Z,2.10
2018-12-05T11:54:48.647Z,3.30
2018-12-05T11:55:48.649Z,2.50
2018-12-05T11:56:48.661Z,3.00
2018-12-05T11:57:48.678Z,2.60
2018-12-05T11:58:48.688Z,2.30
2018-12-05T11:59:48.703Z,2.40
2018-12-05T12:00:48.715Z,2.30
2018-12-05T12:01:48.730Z,2.60
2018-12-05T12:02:48.745Z,2.00
2018-12-05T12:03:48.758Z,2.40
2018-12-05T12:04:48.769Z,2.50
2018-12-05T12:05:48.784Z,2.70
2018-12-05T12:06:48.796Z,2.60
2018-12-05T12:07:48.812Z,2.50
2018-12-05T12:08:48.823Z,2.40
2018-12-05T12:09:48.841Z,3.00
2018-12-05T12:10:48.851Z,2.20
2018-12-05T12:11:48.865Z,2.30
2018-12-05T12:12:48.879Z,2.70
2018-12-05T12:13:48.892Z,2.20
2018-12-05T12:14:48.920Z,2.60
2018-12-05T12:15:48.931Z,2.30
2018-12-05T12:16:48.946Z,2.30
2018-12-05T12:17:48.985Z,2.40
2018-12-05T12:18:48.973Z,2.60
2018-12-05T12:19:48.986Z,2.90
2018-12-05T12:20:48.999Z,2.40
2018-12-05T12:21:49.012Z,2.00
2018-12-05T12:22:49.029Z,2.50
2018-12-05T12:23:49.039Z,3.20
2018-12-05T12:24:49.054Z,2.40
2018-12-05T12:25:49.067Z,2.30
2018-12-05T12:26:49.080Z,2.80
2018-12-05T12:27:49.093Z,2.60
2018-12-05T12:28:49.108Z,2.20
2018-12-05T12:29:49.120Z,1.90
2018-12-05T12:30:49.134Z,2.40
2018-12-05T12:31:49.154Z,2.40
2018-12-05T12:32:49.165Z,2.20
2018-12-05T12:33:49.185Z,2.10
2018-12-05T12:34:49.189Z,1.90
2018-12-05T12:35:49.202Z,2.30
2018-12-05T12:36:49.216Z,2.30
2018-12-05T12:37:49.229Z,2.10
2018-12-05T12:38:49.244Z,2.20
2018-12-05T12:39:49.256Z,2.50
2018-12-05T12:40:49.270Z,2.40
2018-12-05T12:41:49.284Z,2.00
2018-12-05T12:42:49.297Z,2.20
2018-12-05T12:43:49.312Z,1.80
2018-12-05T12:44:49.329Z,2.20
2018-12-05T12:45:49.350Z,2.20
2018-12-05T12:46:49.363Z,2.20
2018-12-05T12:47:49.376Z,1.90
2018-12-05T12:48:49.393Z,2.20
2018-12-05T12:49:49.404Z,2.50
2018-12-05T12:50:49.431Z,2.60
2018-12-05T12:51:49.432Z,1.80
2018-12-05T12:52:49.444Z,2.80
2018-12-05T12:53:49.458Z,2.50
2018-12-05T12:54:49.471Z,1.80
2018-12-05T12:55:49.485Z,1.90
2018-12-05T12:56:49.499Z,2.50
2018-12-05T12:57:49.512Z,2.30
2018-12-05T12:58:49.525Z,2.00
2018-12-05T12:59:49.540Z,2.30
2018-12-05T13:00:49.552Z,2.00
2018-12-05T13:01:49.567Z,1.80
2018-12-05T13:02:49.579Z,2.20
2018-12-05T13:03:49.593Z,2.00
2018-12-05T13:04:49.609Z,1.80
2018-12-05T13:05:49.624Z,2.10
2018-12-05T13:06:49.633Z,2.60
2018-12-05T13:07:49.648Z,2.20
2018-12-05T13:08:49.665Z,2.50
2018-12-05T13:09:49.677Z,2.50
2018-12-05T13:10:49.687Z,2.90
2018-12-05T13:11:49.702Z,2.40
2018-12-05T13:12:49.715Z,2.30
2018-12-05T13:13:49.729Z,2.50
2018-12-05T13:14:49.742Z,2.90
2018-12-05T13:15:49.758Z,2.30
2018-12-05T13:16:49.769Z,2.00
2018-12-05T13:17:49.784Z,2.40
2018-12-05T13:18:49.809Z,2.60